Time;durP1;ratioP1;P1;durP2;ratioP2;P2;SDS_P1;SDS_P2;PMS_P1;PMS_P2;Temp;Humidity;BMP_temperature;BMP_pressure;BME280_temperature;BME280_humidity;BME280_pressure;Samples;Min_cycle;Max_cycle;Signal;HPM_P1;HPM_P2
2023/12/29 00:01:14;;;;;;;2.08;1.65;;;9.00;99.90;;;;;;5019437;28;20029;-62
2023/12/29 00:03:39;;;;;;;1.80;1.65;;;8.90;99.90;;;;;;5018309;28;20025;-62
2023/12/29 00:06:05;;;;;;;1.98;1.77;;;8.90;99.90;;;;;;5021615;28;20128;-64
2023/12/29 00:08:31;;;;;;;1.73;1.58;;;8.90;99.90;;;;;;5018153;28;20057;-63
2023/12/29 00:10:57;;;;;;;2.67;2.00;;;8.90;99.90;;;;;;5016301;28;20382;-61
2023/12/29 00:13:23;;;;;;;1.73;1.63;;;8.90;99.90;;;;;;5019167;28;20424;-63
2023/12/29 00:15:53;;;;;;;1.70;1.50;;;8.90;99.90;;;;;;5019553;28;20028;-62
2023/12/29 00:18:19;;;;;;;1.70;1.60;;;8.90;99.90;;;;;;5015822;28;20770;-65
2023/12/29 00:20:44;;;;;;;2.08;1.50;;;8.90;99.90;;;;;;5018403;28;20045;-64
2023/12/29 00:23:10;;;;;;;1.92;1.65;;;8.90;99.90;;;;;;5018534;28;20038;-62
2023/12/29 00:25:39;;;;;;;5.47;2.15;;;8.90;99.90;;;;;;5017277;28;20034;-62
2023/12/29 00:28:05;;;;;;;2.15;1.85;;;8.90;99.90;;;;;;5021174;28;20012;-62
2023/12/29 00:30:31;;;;;;;2.47;2.17;;;9.00;99.90;;;;;;5017972;28;20022;-63
2023/12/29 00:32:57;;;;;;;2.03;1.83;;;9.00;99.90;;;;;;5018004;28;20520;-63
2023/12/29 00:35:22;;;;;;;4.00;2.25;;;9.00;99.90;;;;;;5020532;28;20022;-62
2023/12/29 00:37:51;;;;;;;3.67;1.75;;;9.00;99.90;;;;;;5019030;28;20505;-62
2023/12/29 00:40:16;;;;;;;5.03;2.05;;;8.90;99.90;;;;;;5019547;28;20026;-62
2023/12/29 00:42:42;;;;;;;1.65;1.55;;;8.90;99.90;;;;;;5018227;28;20386;-63
2023/12/29 00:45:08;;;;;;;3.30;3.00;;;8.80;99.90;;;;;;5019106;28;20037;-61
2023/12/29 00:47:34;;;;;;;2.15;1.80;;;8.80;99.90;;;;;;5018023;28;20065;-63
2023/12/29 00:50:00;;;;;;;2.60;1.83;;;8.80;99.90;;;;;;5003398;28;20034;-62
2023/12/29 00:52:27;;;;;;;2.28;2.08;;;8.80;99.90;;;;;;5012886;28;20045;-62
2023/12/29 00:54:52;;;;;;;3.22;1.95;;;8.70;99.90;;;;;;5014580;28;20034;-62
2023/12/29 00:57:18;;;;;;;2.40;2.13;;;8.70;99.90;;;;;;5019038;28;20575;-62
2023/12/29 00:59:46;;;;;;;2.50;2.30;;;8.70;99.90;;;;;;5017636;28;20026;-63
2023/12/29 01:02:12;;;;;;;3.47;2.35;;;8.70;99.90;;;;;;5018708;28;20530;-64
2023/12/29 01:04:41;;;;;;;4.20;2.42;;;8.70;99.90;;;;;;5014064;28;20125;-64
2023/12/29 01:07:06;;;;;;;2.65;2.20;;;8.60;99.90;;;;;;5018138;28;20034;-62
2023/12/29 01:09:32;;;;;;;2.75;2.10;;;8.70;99.90;;;;;;5019065;28;20059;-63
2023/12/29 01:11:57;;;;;;;3.13;2.17;;;8.70;99.90;;;;;;5018656;28;20068;-62
2023/12/29 01:14:23;;;;;;;2.95;2.00;;;8.70;99.90;;;;;;5015887;28;20053;-62
2023/12/29 01:16:49;;;;;;;2.22;2.03;;;8.80;99.90;;;;;;5019452;28;20058;-62
2023/12/29 01:19:14;;;;;;;2.78;2.00;;;8.80;99.90;;;;;;5018674;28;20418;-63
2023/12/29 01:21:40;;;;;;;2.28;2.00;;;8.80;99.90;;;;;;5018994;28;20026;-62
2023/12/29 01:24:07;;;;;;;3.47;2.10;;;8.90;99.90;;;;;;5019242;28;20026;-62
2023/12/29 01:26:37;;;;;;;2.50;2.25;;;8.80;99.90;;;;;;5018433;28;20530;-64
2023/12/29 01:29:03;;;;;;;2.10;1.90;;;8.80;99.90;;;;;;5019702;28;20033;-62
2023/12/29 01:31:31;;;;;;;2.75;2.35;;;8.80;99.90;;;;;;5015509;28;20029;-63
2023/12/29 01:33:57;;;;;;;2.28;1.60;;;8.80;99.90;;;;;;5017807;28;20082;-63
2023/12/29 01:36:23;;;;;;;2.10;1.85;;;8.80;99.90;;;;;;5019444;28;20034;-63
2023/12/29 01:38:49;;;;;;;2.13;1.77;;;8.80;99.90;;;;;;5020209;28;20029;-63
2023/12/29 01:41:14;;;;;;;2.75;1.73;;;8.80;99.90;;;;;;5021650;28;20057;-62
2023/12/29 01:43:58;;;;;;;2.95;2.13;;;8.80;99.90;;;;;;5021028;28;20038;-63
2023/12/29 01:46:29;;;;;;;2.55;1.70;;;8.80;99.90;;;;;;5023964;28;20090;-62
2023/12/29 01:48:55;;;;;;;2.03;1.60;;;8.80;99.90;;;;;;5018329;28;20702;-62
2023/12/29 01:51:25;;;;;;;4.78;1.90;;;8.80;99.90;;;;;;5018179;28;20045;-63
2023/12/29 01:53:56;;;;;;;2.40;1.70;;;8.80;99.90;;;;;;5023086;28;20287;-62
2023/12/29 01:56:22;;;;;;;2.03;1.60;;;8.80;99.90;;;;;;5022990;28;20565;-64
2023/12/29 01:58:51;;;;;;;2.13;1.70;;;8.90;99.90;;;;;;5021744;28;20032;-64
2023/12/29 02:01:18;;;;;;;3.17;1.85;;;8.90;99.90;;;;;;5020653;28;20030;-62
2023/12/29 02:03:47;;;;;;;2.22;1.45;;;8.90;99.90;;;;;;5022434;28;20474;-62
2023/12/29 02:06:15;;;;;;;1.88;1.40;;;8.90;99.90;;;;;;5017118;28;20033;-62
2023/12/29 02:08:41;;;;;;;3.35;1.70;;;8.90;99.90;;;;;;5020263;28;20105;-61
2023/12/29 02:11:07;;;;;;;1.52;1.40;;;8.80;99.90;;;;;;5022583;28;20108;-62
2023/12/29 02:13:33;;;;;;;1.40;1.30;;;8.80;99.90;;;;;;5020121;28;20088;-62
2023/12/29 02:16:07;;;;;;;1.73;1.25;;;8.80;99.90;;;;;;5022021;28;20021;-63
2023/12/29 02:18:36;;;;;;;2.53;1.85;;;8.80;99.90;;;;;;5020115;28;20030;-63
2023/12/29 02:21:02;;;;;;;1.65;1.45;;;8.80;99.90;;;;;;5023229;28;20429;-63
2023/12/29 02:23:28;;;;;;;1.60;1.42;;;8.80;99.90;;;;;;5022664;28;20379;-63
2023/12/29 02:26:01;;;;;;;2.33;1.50;;;8.80;99.90;;;;;;5019075;28;20036;-64
2023/12/29 02:28:27;;;;;;;3.00;1.50;;;8.90;99.90;;;;;;5019815;28;20123;-62
2023/12/29 02:31:19;;;;;;;1.42;1.33;;;9.00;99.90;;;;;;5022981;28;20017;-60
2023/12/29 02:33:47;;;;;;;2.55;1.70;;;9.00;99.90;;;;;;5020925;28;20539;-63
2023/12/29 02:36:15;;;;;;;1.52;1.25;;;9.00;99.90;;;;;;5019811;28;20096;-63
2023/12/29 02:38:41;;;;;;;1.67;1.50;;;9.10;99.90;;;;;;5018452;28;20038;-62
2023/12/29 02:41:06;;;;;;;1.73;1.58;;;9.10;99.90;;;;;;5021525;28;20598;-62
2023/12/29 02:43:32;;;;;;;1.90;1.33;;;9.10;99.90;;;;;;5019482;28;20489;-62
2023/12/29 02:45:58;;;;;;;3.35;1.45;;;9.10;99.90;;;;;;5021416;28;20042;-62
2023/12/29 02:48:24;;;;;;;2.40;2.08;;;9.10;99.90;;;;;;5020160;28;20025;-62
2023/12/29 02:50:49;;;;;;;2.28;1.30;;;9.20;99.90;;;;;;5019338;28;20145;-62
2023/12/29 02:53:15;;;;;;;2.05;1.52;;;9.20;99.90;;;;;;5020138;28;20597;-64
2023/12/29 02:55:41;;;;;;;2.25;1.42;;;9.10;99.90;;;;;;5019759;28;20068;-63
2023/12/29 02:58:08;;;;;;;4.38;1.25;;;9.10;99.90;;;;;;5021455;28;20021;-62
2023/12/29 03:00:34;;;;;;;1.60;1.42;;;9.00;99.90;;;;;;5017868;28;20056;-61
2023/12/29 03:02:59;;;;;;;1.42;1.20;;;8.90;99.90;;;;;;5018832;28;20486;-64
2023/12/29 03:05:25;;;;;;;3.88;1.30;;;8.90;99.90;;;;;;5020807;28;20018;-61
2023/12/29 03:07:51;;;;;;;1.65;1.35;;;8.80;99.90;;;;;;5021147;28;20029;-62
2023/12/29 03:10:16;;;;;;;1.98;1.40;;;8.80;99.90;;;;;;5023152;28;20025;-63
2023/12/29 03:12:42;;;;;;;1.70;1.30;;;8.70;99.90;;;;;;5019765;28;20101;-63
2023/12/29 03:15:08;;;;;;;2.55;1.40;;;8.80;99.90;;;;;;5017844;28;20034;-61
2023/12/29 03:17:34;;;;;;;1.50;1.40;;;8.90;99.90;;;;;;5019708;28;20022;-64
2023/12/29 03:19:59;;;;;;;1.70;1.38;;;8.80;99.90;;;;;;5019796;28;20032;-62
2023/12/29 03:22:25;;;;;;;1.52;1.40;;;8.80;99.90;;;;;;5020108;28;20044;-61
2023/12/29 03:24:51;;;;;;;2.13;1.40;;;8.70;99.90;;;;;;5016525;28;20022;-62
2023/12/29 03:27:16;;;;;;;2.55;1.52;;;8.70;99.90;;;;;;5020642;28;20113;-63
2023/12/29 03:29:42;;;;;;;1.40;1.30;;;8.70;99.90;;;;;;5020998;28;20033;-61
2023/12/29 03:32:07;;;;;;;1.50;1.38;;;8.70;99.90;;;;;;5021172;28;20033;-62
2023/12/29 03:34:33;;;;;;;4.60;2.85;;;8.70;99.90;;;;;;5018950;28;20127;-63
2023/12/29 03:36:59;;;;;;;2.60;1.48;;;8.70;99.90;;;;;;5017552;28;20500;-62
2023/12/29 03:39:24;;;;;;;2.88;1.48;;;8.70;99.90;;;;;;5020919;28;20022;-63
2023/12/29 03:41:50;;;;;;;3.08;1.60;;;8.70;99.90;;;;;;5019721;28;20129;-61
2023/12/29 03:44:17;;;;;;;2.80;1.58;;;8.70;99.90;;;;;;5020930;28;20041;-62
2023/12/29 03:46:43;;;;;;;1.90;1.70;;;8.70;99.90;;;;;;5020404;28;20024;-62
2023/12/29 03:49:09;;;;;;;1.83;1.30;;;8.80;99.90;;;;;;5021145;28;20021;-63
2023/12/29 03:51:34;;;;;;;2.00;1.70;;;8.80;99.90;;;;;;5020171;28;20367;-61
2023/12/29 03:54:00;;;;;;;1.77;1.33;;;8.80;99.90;;;;;;5020432;28;20045;-63
2023/12/29 03:56:26;;;;;;;1.92;1.63;;;8.90;99.90;;;;;;5021660;28;20100;-62
2023/12/29 03:58:52;;;;;;;2.10;1.83;;;8.90;99.90;;;;;;5020249;28;20025;-62
2023/12/29 04:01:19;;;;;;;2.42;1.83;;;8.90;99.90;;;;;;5019256;28;20445;-62
2023/12/29 04:03:45;;;;;;;2.65;1.80;;;9.00;99.90;;;;;;5017234;28;20076;-62
2023/12/29 04:06:11;;;;;;;2.45;1.83;;;9.00;99.90;;;;;;5018213;28;20025;-60
2023/12/29 04:08:37;;;;;;;2.58;1.95;;;9.00;99.90;;;;;;5018957;28;20033;-62
2023/12/29 04:11:04;;;;;;;2.22;2.00;;;8.90;99.90;;;;;;5020278;28;20029;-61
2023/12/29 04:13:30;;;;;;;2.90;2.67;;;8.90;99.90;;;;;;5020230;28;20414;-62
2023/12/29 04:15:56;;;;;;;2.45;1.80;;;9.00;99.90;;;;;;5023057;28;20100;-62
2023/12/29 04:18:23;;;;;;;2.15;1.95;;;9.00;99.90;;;;;;5018490;28;20129;-62
2023/12/29 04:20:49;;;;;;;3.28;1.95;;;9.00;99.90;;;;;;5017089;28;20049;-62
2023/12/29 04:23:14;;;;;;;2.22;1.92;;;9.00;99.90;;;;;;5016585;28;20017;-60
2023/12/29 04:25:40;;;;;;;4.68;2.33;;;9.00;99.90;;;;;;5017999;28;20030;-62
2023/12/29 04:28:09;;;;;;;2.33;1.88;;;9.00;99.90;;;;;;5020053;28;20100;-63
2023/12/29 04:30:35;;;;;;;2.47;2.05;;;9.00;99.90;;;;;;5017913;28;20029;-63
2023/12/29 04:33:01;;;;;;;2.72;2.15;;;9.00;99.90;;;;;;5018919;28;20029;-63
2023/12/29 04:35:27;;;;;;;2.65;1.73;;;9.10;99.90;;;;;;5015264;28;20091;-62
2023/12/29 04:37:52;;;;;;;3.47;2.75;;;9.10;99.90;;;;;;5016994;28;20025;-63
2023/12/29 04:40:18;;;;;;;4.20;1.67;;;9.10;99.90;;;;;;5022449;28;20777;-63
2023/12/29 04:42:44;;;;;;;2.08;1.88;;;9.10;99.90;;;;;;5019083;28;20034;-62
2023/12/29 04:45:12;;;;;;;2.03;1.52;;;9.10;99.90;;;;;;5018046;28;20121;-62
2023/12/29 04:47:38;;;;;;;2.05;1.70;;;9.00;99.90;;;;;;5017591;28;20537;-62
2023/12/29 04:50:08;;;;;;;2.88;1.83;;;9.10;99.90;;;;;;5016443;28;20057;-64
2023/12/29 04:52:34;;;;;;;2.88;1.60;;;9.10;99.90;;;;;;5015055;28;22290;-63
2023/12/29 04:54:59;;;;;;;2.42;1.90;;;9.00;99.90;;;;;;5020079;28;20056;-62
2023/12/29 04:57:25;;;;;;;1.70;1.50;;;8.90;99.90;;;;;;5019107;28;20068;-63
2023/12/29 04:59:51;;;;;;;2.78;1.90;;;8.90;99.90;;;;;;5018748;28;20029;-61
2023/12/29 05:02:16;;;;;;;2.03;1.67;;;8.80;99.90;;;;;;5017802;28;20040;-61
2023/12/29 05:04:42;;;;;;;2.00;1.73;;;8.80;99.90;;;;;;5020431;28;20116;-62
2023/12/29 05:07:09;;;;;;;2.30;1.75;;;8.80;99.90;;;;;;5017072;28;20101;-61
2023/12/29 05:09:35;;;;;;;1.98;1.70;;;8.70;99.90;;;;;;5022484;28;20029;-62
2023/12/29 05:12:01;;;;;;;2.15;1.77;;;8.70;99.90;;;;;;5021873;28;20034;-61
2023/12/29 05:14:26;;;;;;;1.80;1.40;;;8.60;99.90;;;;;;5020294;28;20144;-62
2023/12/29 05:16:52;;;;;;;2.20;2.00;;;8.60;99.90;;;;;;5021541;28;20121;-62
2023/12/29 05:19:18;;;;;;;2.10;1.58;;;8.60;99.90;;;;;;5024845;28;20026;-63
2023/12/29 05:21:43;;;;;;;2.90;1.55;;;8.60;99.90;;;;;;5020660;28;20053;-62
2023/12/29 05:24:09;;;;;;;2.92;1.75;;;8.60;99.90;;;;;;5019550;28;20057;-63
2023/12/29 05:26:34;;;;;;;2.95;2.28;;;8.60;99.90;;;;;;5020280;28;20030;-61
2023/12/29 05:29:00;;;;;;;2.75;1.77;;;8.60;99.90;;;;;;5021554;28;20512;-63
2023/12/29 05:31:26;;;;;;;2.40;1.77;;;8.70;99.90;;;;;;5020464;28;20084;-61
2023/12/29 05:33:51;;;;;;;2.47;1.92;;;8.60;99.90;;;;;;5022999;28;20080;-62
2023/12/29 05:36:17;;;;;;;2.13;1.92;;;8.50;99.90;;;;;;5015763;28;20061;-62
2023/12/29 05:38:46;;;;;;;2.10;1.77;;;8.60;99.90;;;;;;5020946;28;20030;-62
2023/12/29 05:41:15;;;;;;;1.80;1.60;;;8.50;99.90;;;;;;5025394;28;20029;-61
2023/12/29 05:43:41;;;;;;;3.00;1.83;;;8.50;99.90;;;;;;5021444;28;20036;-61
2023/12/29 05:46:11;;;;;;;2.20;1.70;;;8.40;99.90;;;;;;5020409;28;20397;-63
2023/12/29 05:48:37;;;;;;;2.47;1.87;;;8.40;99.90;;;;;;5021478;28;20037;-62
2023/12/29 05:51:12;;;;;;;2.00;1.80;;;8.40;99.90;;;;;;5020411;28;20022;-62
2023/12/29 05:53:39;;;;;;;2.92;1.80;;;8.40;99.90;;;;;;5021382;28;20039;-61
2023/12/29 05:56:05;;;;;;;2.83;1.77;;;8.40;99.90;;;;;;5018140;28;20036;-62
2023/12/29 05:58:31;;;;;;;2.08;1.75;;;8.30;99.90;;;;;;5020719;28;20022;-63
2023/12/29 06:00:57;;;;;;;2.30;1.70;;;8.30;99.90;;;;;;5018720;28;20021;-62
2023/12/29 06:03:23;;;;;;;1.98;1.70;;;8.20;99.90;;;;;;5019965;28;20026;-63
2023/12/29 06:05:49;;;;;;;1.80;1.45;;;8.20;99.90;;;;;;5020939;28;20112;-62
2023/12/29 06:08:14;;;;;;;2.13;1.50;;;8.10;99.90;;;;;;5022120;28;20017;-63
2023/12/29 06:10:40;;;;;;;2.28;1.80;;;8.10;99.90;;;;;;5018633;28;20036;-62
2023/12/29 06:13:05;;;;;;;2.47;1.98;;;8.10;99.90;;;;;;5029710;28;20076;-63
2023/12/29 06:15:31;;;;;;;2.25;1.77;;;8.00;99.90;;;;;;5021754;28;20521;-63
2023/12/29 06:17:57;;;;;;;2.53;1.50;;;8.00;99.90;;;;;;5023275;28;20114;-62
2023/12/29 06:20:23;;;;;;;2.63;2.13;;;7.90;99.90;;;;;;5023343;28;20388;-62
2023/12/29 06:22:49;;;;;;;2.33;1.67;;;7.80;99.90;;;;;;5020427;28;20030;-62
2023/12/29 06:25:15;;;;;;;2.97;2.15;;;7.80;99.90;;;;;;5023951;28;20466;-60
2023/12/29 06:27:41;;;;;;;3.03;1.50;;;7.70;99.90;;;;;;5026486;28;20022;-62
2023/12/29 06:30:08;;;;;;;3.55;1.63;;;7.70;99.90;;;;;;5019469;28;20034;-62
2023/12/29 06:32:33;;;;;;;3.45;1.90;;;7.70;99.90;;;;;;5020870;28;20024;-62
2023/12/29 06:34:59;;;;;;;1.88;1.58;;;7.70;99.90;;;;;;5019603;28;20034;-62
2023/12/29 06:37:25;;;;;;;3.35;1.80;;;7.80;99.90;;;;;;5021048;28;20024;-62
2023/12/29 06:39:50;;;;;;;3.78;1.88;;;7.80;99.90;;;;;;5020989;28;20030;-62
2023/12/29 06:42:16;;;;;;;1.75;1.52;;;7.90;99.90;;;;;;5021791;28;20036;-63
2023/12/29 06:44:42;;;;;;;2.45;1.70;;;7.90;99.90;;;;;;5016649;28;20042;-62
2023/12/29 06:47:07;;;;;;;2.95;1.65;;;7.90;99.90;;;;;;5017939;28;20030;-62
2023/12/29 06:49:36;;;;;;;2.13;1.63;;;7.90;99.90;;;;;;5014155;28;20049;-62
2023/12/29 06:52:02;;;;;;;1.42;1.27;;;7.90;99.90;;;;;;5019786;28;20029;-61
2023/12/29 06:54:27;;;;;;;1.67;1.58;;;7.90;99.90;;;;;;5019842;28;20045;-62
2023/12/29 06:56:53;;;;;;;1.88;1.52;;;7.90;99.90;;;;;;5021158;28;20041;-62
2023/12/29 06:59:19;;;;;;;1.25;1.15;;;7.90;99.90;;;;;;5021974;28;20039;-63
2023/12/29 07:01:46;;;;;;;6.22;2.05;;;7.90;99.90;;;;;;5019005;28;20040;-63
2023/12/29 07:04:12;;;;;;;21.65;2.95;;;7.80;99.90;;;;;;5020463;28;20037;-62
2023/12/29 07:06:38;;;;;;;2.35;1.50;;;7.80;99.90;;;;;;5014925;28;20132;-61
2023/12/29 07:09:04;;;;;;;1.90;1.30;;;7.70;99.90;;;;;;5022028;28;20108;-63
2023/12/29 07:11:30;;;;;;;1.30;1.20;;;7.60;99.90;;;;;;5020811;28;20026;-63
2023/12/29 07:13:55;;;;;;;2.13;1.80;;;7.60;99.90;;;;;;5003796;28;20049;-63
2023/12/29 07:16:21;;;;;;;1.50;1.40;;;7.60;99.90;;;;;;5024035;28;20021;-64
2023/12/29 07:18:47;;;;;;;2.53;2.05;;;7.60;99.90;;;;;;5022337;28;20041;-62
2023/12/29 07:21:14;;;;;;;1.55;1.45;;;7.60;99.90;;;;;;5022256;28;20112;-61
2023/12/29 07:23:41;;;;;;;1.58;1.48;;;7.50;99.90;;;;;;5017710;28;20073;-64
2023/12/29 07:26:07;;;;;;;1.85;1.40;;;7.60;99.90;;;;;;5019831;28;20034;-62
2023/12/29 07:28:32;;;;;;;3.03;1.90;;;7.70;99.90;;;;;;5018814;28;20480;-62
2023/12/29 07:30:58;;;;;;;2.42;1.65;;;7.80;99.90;;;;;;5023181;28;20076;-62
2023/12/29 07:33:24;;;;;;;1.92;1.73;;;7.90;99.90;;;;;;5023328;28;20032;-63
2023/12/29 07:35:50;;;;;;;4.65;1.80;;;7.90;99.90;;;;;;5018134;28;20041;-62
2023/12/29 07:38:16;;;;;;;2.35;1.83;;;7.90;99.90;;;;;;5021985;28;20135;-65
2023/12/29 07:40:42;;;;;;;4.78;2.67;;;7.80;99.90;;;;;;5018521;28;20104;-62
2023/12/29 07:43:08;;;;;;;2.65;1.80;;;7.90;99.90;;;;;;5020482;28;20044;-62
2023/12/29 07:45:34;;;;;;;2.50;1.85;;;8.00;99.90;;;;;;5018586;28;20433;-63
2023/12/29 07:48:01;;;;;;;2.88;1.85;;;8.10;99.90;;;;;;5020065;28;20088;-62
2023/12/29 07:50:27;;;;;;;2.30;1.73;;;8.20;99.90;;;;;;5022721;28;20084;-63
2023/12/29 07:52:53;;;;;;;1.90;1.58;;;8.20;99.90;;;;;;5021606;28;20059;-62
2023/12/29 07:55:18;;;;;;;3.90;2.10;;;8.30;99.90;;;;;;5018567;28;20034;-62
2023/12/29 07:57:46;;;;;;;2.20;1.85;;;8.40;99.90;;;;;;5023211;28;20029;-63
2023/12/29 08:00:13;;;;;;;2.22;1.90;;;8.40;99.90;;;;;;5022366;28;20148;-62
2023/12/29 08:02:39;;;;;;;1.58;1.48;;;8.40;99.90;;;;;;5020321;28;20091;-62
2023/12/29 08:05:08;;;;;;;3.45;1.52;;;8.40;99.90;;;;;;5022670;28;20033;-62
2023/12/29 08:07:34;;;;;;;1.98;1.50;;;8.40;99.90;;;;;;5020701;28;21501;-62
2023/12/29 08:10:00;;;;;;;2.05;1.60;;;8.50;99.90;;;;;;5022410;28;20029;-63
2023/12/29 08:12:28;;;;;;;2.17;1.75;;;8.60;99.90;;;;;;5020579;28;20092;-62
2023/12/29 08:14:53;;;;;;;1.95;1.48;;;8.60;99.90;;;;;;5022555;28;20026;-63
2023/12/29 08:17:19;;;;;;;1.70;1.50;;;8.70;99.90;;;;;;5021566;28;20038;-65
2023/12/29 08:19:45;;;;;;;1.77;1.55;;;8.80;99.90;;;;;;5021636;28;20041;-61
2023/12/29 08:22:10;;;;;;;3.05;1.40;;;8.80;99.90;;;;;;5019810;28;20092;-62
2023/12/29 08:24:36;;;;;;;4.85;1.63;;;8.90;99.90;;;;;;5021988;28;20140;-63
2023/12/29 08:27:03;;;;;;;1.77;1.45;;;8.90;99.90;;;;;;5021387;28;20022;-63
2023/12/29 08:29:29;;;;;;;2.17;1.30;;;9.00;99.90;;;;;;5019517;28;20080;-62
2023/12/29 08:31:54;;;;;;;2.20;1.83;;;9.00;99.90;;;;;;5021512;28;20457;-61
2023/12/29 08:34:20;;;;;;;2.15;1.27;;;9.00;99.90;;;;;;5020358;28;20422;-63
2023/12/29 08:36:45;;;;;;;2.45;1.30;;;9.10;99.90;;;;;;5020132;28;20104;-63
2023/12/29 08:39:12;;;;;;;1.55;1.30;;;9.10;99.90;;;;;;5018861;28;20628;-61
2023/12/29 08:41:37;;;;;;;1.52;1.20;;;9.20;99.90;;;;;;5019826;28;20033;-61
2023/12/29 08:44:03;;;;;;;2.05;1.48;;;9.20;99.90;;;;;;5022521;28;20444;-62
2023/12/29 08:46:29;;;;;;;2.67;1.48;;;9.20;99.90;;;;;;5025586;28;20029;-63
2023/12/29 08:48:55;;;;;;;2.80;1.40;;;9.30;99.90;;;;;;5024953;28;20528;-63
2023/12/29 08:51:21;;;;;;;1.48;1.10;;;9.40;99.90;;;;;;5019480;28;20030;-62
2023/12/29 08:53:46;;;;;;;1.20;1.10;;;9.40;99.90;;;;;;5021351;28;20040;-63
2023/12/29 08:56:13;;;;;;;1.55;1.25;;;9.50;99.90;;;;;;5021315;28;20153;-62
2023/12/29 08:58:39;;;;;;;1.60;1.17;;;9.60;99.90;;;;;;5018383;28;20136;-62
2023/12/29 09:01:05;;;;;;;1.80;1.00;;;9.70;99.90;;;;;;5022013;28;20017;-62
2023/12/29 09:03:31;;;;;;;1.20;1.10;;;9.70;99.90;;;;;;5021522;28;20113;-63
2023/12/29 09:05:57;;;;;;;2.20;1.25;;;9.80;99.90;;;;;;5019442;28;20049;-61
2023/12/29 09:08:22;;;;;;;2.45;1.10;;;9.80;99.90;;;;;;5025420;28;20028;-63
2023/12/29 09:10:48;;;;;;;1.50;1.40;;;9.80;99.90;;;;;;5024494;28;20661;-62
2023/12/29 09:13:13;;;;;;;1.05;0.95;;;9.80;99.90;;;;;;5027236;28;20021;-62
2023/12/29 09:15:39;;;;;;;0.88;0.80;;;9.90;99.90;;;;;;5024657;28;20034;-63
2023/12/29 09:18:05;;;;;;;1.23;1.00;;;10.00;99.90;;;;;;5025553;28;20482;-61
2023/12/29 09:20:31;;;;;;;1.48;1.10;;;10.00;99.90;;;;;;5025302;28;20029;-62
2023/12/29 09:22:58;;;;;;;1.23;0.98;;;10.00;99.90;;;;;;5024289;28;20434;-64
2023/12/29 09:25:23;;;;;;;1.77;0.82;;;10.00;99.90;;;;;;5022232;28;20030;-62
2023/12/29 09:27:52;;;;;;;2.40;1.50;;;10.00;99.90;;;;;;5025912;28;20576;-62
2023/12/29 09:30:18;;;;;;;1.10;0.80;;;10.00;99.90;;;;;;5024252;28;20133;-62
2023/12/29 09:32:44;;;;;;;2.35;1.10;;;10.00;99.90;;;;;;5023483;28;20026;-62
2023/12/29 09:35:09;;;;;;;1.40;1.10;;;10.10;99.90;;;;;;5023135;28;20370;-63
2023/12/29 09:37:35;;;;;;;1.48;0.93;;;10.20;99.90;;;;;;5023067;28;20018;-62
2023/12/29 09:40:01;;;;;;;1.50;0.90;;;10.20;99.90;;;;;;5025499;28;21069;-62
2023/12/29 09:42:29;;;;;;;1.83;0.90;;;10.30;99.90;;;;;;5025006;28;20041;-62
2023/12/29 09:44:54;;;;;;;1.55;1.08;;;10.60;99.90;;;;;;5025772;28;20030;-61
2023/12/29 09:47:25;;;;;;;1.00;0.90;;;10.60;99.90;;;;;;5024003;28;20037;-62
2023/12/29 09:49:55;;;;;;;2.17;1.13;;;10.40;99.90;;;;;;5026349;28;20107;-62
2023/12/29 09:52:22;;;;;;;0.80;0.80;;;10.40;99.90;;;;;;5024790;28;20697;-63
2023/12/29 09:54:50;;;;;;;1.17;0.98;;;10.40;99.90;;;;;;5024399;28;20025;-62
2023/12/29 09:57:18;;;;;;;0.80;0.80;;;10.40;99.90;;;;;;5019759;28;20049;-63
2023/12/29 09:59:44;;;;;;;2.28;0.93;;;10.40;99.90;;;;;;5020562;28;20513;-62
2023/12/29 10:02:17;;;;;;;2.00;1.33;;;10.40;99.90;;;;;;5021754;28;20018;-62
2023/12/29 10:04:43;;;;;;;1.63;1.08;;;10.60;99.90;;;;;;5020097;28;20500;-63
2023/12/29 10:07:15;;;;;;;2.55;1.15;;;10.90;99.90;;;;;;5021627;28;20038;-62
2023/12/29 10:09:42;;;;;;;1.50;0.90;;;10.90;99.90;;;;;;5022607;28;20041;-63
2023/12/29 10:12:10;;;;;;;1.55;1.00;;;10.90;99.90;;;;;;5020727;28;20022;-59
2023/12/29 10:14:54;;;;;;;1.25;0.82;;;10.90;99.90;;;;;;5022813;28;20029;-62
2023/12/29 10:18:04;;;;;;;1.98;1.15;;;10.80;99.90;;;;;;5026538;28;20056;-62
2023/12/29 10:20:41;;;;;;;1.85;0.80;;;10.80;99.90;;;;;;5020725;28;20022;-62
2023/12/29 10:23:14;;;;;;;1.35;0.80;;;10.90;99.90;;;;;;5019973;28;20025;-62
2023/12/29 10:25:40;;;;;;;1.92;0.80;;;11.20;99.90;;;;;;5018926;28;20056;-61
2023/12/29 10:28:06;;;;;;;3.17;1.20;;;11.40;99.90;;;;;;5021049;28;20025;-62
2023/12/29 10:30:32;;;;;;;1.83;1.27;;;11.50;99.90;;;;;;5017674;28;20032;-62
2023/12/29 10:33:00;;;;;;;0.85;0.77;;;11.60;99.90;;;;;;5022196;28;20045;-61
2023/12/29 10:35:26;;;;;;;0.85;0.77;;;11.90;99.90;;;;;;5020930;28;20729;-63
2023/12/29 10:37:52;;;;;;;0.85;0.73;;;12.00;99.90;;;;;;5022990;28;20367;-61
2023/12/29 10:40:18;;;;;;;1.00;0.90;;;12.00;99.90;;;;;;5020587;28;20088;-63
2023/12/29 10:42:57;;;;;;;0.93;0.80;;;12.00;99.90;;;;;;5021565;28;20026;-63
2023/12/29 10:45:24;;;;;;;0.82;0.80;;;12.00;99.90;;;;;;5018925;28;20030;-62
2023/12/29 10:47:50;;;;;;;1.60;1.50;;;12.00;99.90;;;;;;5018303;28;20033;-63
2023/12/29 10:50:16;;;;;;;1.38;1.02;;;12.00;99.90;;;;;;5021263;28;20030;-62
2023/12/29 10:52:42;;;;;;;1.05;0.80;;;12.00;99.90;;;;;;5016756;28;20030;-64
2023/12/29 10:55:11;;;;;;;1.92;0.73;;;12.00;99.90;;;;;;5018860;28;20033;-62
2023/12/29 10:57:40;;;;;;;1.20;0.75;;;12.00;99.90;;;;;;5019675;28;20041;-63
2023/12/29 11:00:12;;;;;;;1.73;0.95;;;12.20;99.90;;;;;;5021298;28;20057;-65
2023/12/29 11:02:38;;;;;;;1.98;0.70;;;12.10;99.90;;;;;;5019764;28;20038;-62
2023/12/29 11:05:05;;;;;;;1.75;0.98;;;12.20;99.90;;;;;;5017443;28;20037;-62
2023/12/29 11:07:36;;;;;;;2.22;0.80;;;12.20;99.90;;;;;;5017255;28;20018;-63
2023/12/29 11:10:08;;;;;;;0.95;0.75;;;12.20;99.90;;;;;;5018419;28;20030;-62
2023/12/29 11:12:35;;;;;;;1.15;0.70;;;12.20;99.90;;;;;;5019465;28;20104;-64
2023/12/29 11:15:03;;;;;;;0.93;0.88;;;12.30;99.90;;;;;;5019162;28;20084;-61
2023/12/29 11:17:31;;;;;;;1.42;0.70;;;12.20;99.90;;;;;;5022875;28;20371;-62
2023/12/29 11:20:03;;;;;;;2.45;1.65;;;12.10;99.90;;;;;;5020690;28;20717;-63
2023/12/29 11:22:30;;;;;;;3.40;0.73;;;12.00;99.90;;;;;;5019622;28;20030;-62
2023/12/29 11:24:59;;;;;;;1.08;0.70;;;12.10;99.90;;;;;;5020664;28;20127;-62
2023/12/29 11:27:32;;;;;;;0.80;0.70;;;12.10;99.90;;;;;;5019358;28;20038;-62
2023/12/29 11:30:00;;;;;;;0.98;0.80;;;12.20;99.90;;;;;;5019584;28;20091;-62
2023/12/29 11:33:01;;;;;;;2.05;1.30;;;12.10;99.90;;;;;;5023083;28;20029;-63
2023/12/29 11:35:35;;;;;;;1.55;1.00;;;11.80;99.90;;;;;;5017342;28;20029;-63
2023/12/29 11:38:20;;;;;;;1.65;0.98;;;11.70;99.90;;;;;;5019361;28;20096;-62
2023/12/29 11:41:05;;;;;;;0.93;0.70;;;11.60;99.90;;;;;;5021193;28;20500;-63
2023/12/29 11:43:31;;;;;;;2.10;0.80;;;11.50;99.90;;;;;;5021363;28;20096;-63
2023/12/29 11:45:56;;;;;;;1.80;1.17;;;11.50;99.90;;;;;;5023474;28;20112;-62
2023/12/29 11:48:56;;;;;;;1.13;0.60;;;11.40;99.90;;;;;;5018873;28;20590;-62
2023/12/29 11:51:28;;;;;;;1.52;0.90;;;11.30;99.90;;;;;;5019791;28;20034;-62
2023/12/29 11:53:54;;;;;;;2.10;0.70;;;11.40;99.90;;;;;;5018194;28;20108;-64
2023/12/29 11:56:20;;;;;;;1.33;0.70;;;11.30;99.90;;;;;;5018624;28;20078;-61
2023/12/29 11:58:45;;;;;;;3.05;0.80;;;11.30;99.90;;;;;;5020180;28;20037;-62
2023/12/29 12:01:14;;;;;;;1.52;0.77;;;11.30;99.90;;;;;;5020598;28;20022;-62
2023/12/29 12:03:39;;;;;;;1.27;1.17;;;11.20;99.90;;;;;;5017399;28;20026;-62
2023/12/29 12:06:05;;;;;;;2.28;0.80;;;11.20;99.90;;;;;;5018214;28;20019;-63
2023/12/29 12:08:35;;;;;;;2.80;1.10;;;11.10;99.90;;;;;;5018830;28;20589;-63
2023/12/29 12:11:28;;;;;;;1.40;0.80;;;11.00;99.90;;;;;;5020603;28;20032;-62
2023/12/29 12:13:56;;;;;;;2.50;0.90;;;11.00;99.90;;;;;;5023107;28;20025;-62
2023/12/29 12:16:46;;;;;;;1.85;0.90;;;10.90;99.90;;;;;;4990911;28;20025;-62
2023/12/29 12:19:13;;;;;;;0.95;0.85;;;10.80;99.90;;;;;;5020907;28;20021;-62
2023/12/29 12:21:38;;;;;;;0.85;0.70;;;10.80;99.90;;;;;;5019950;28;20088;-62
2023/12/29 12:24:05;;;;;;;0.82;0.68;;;10.80;99.90;;;;;;5021146;28;20571;-62
2023/12/29 12:26:31;;;;;;;0.95;0.88;;;11.00;99.90;;;;;;5020855;28;20120;-63
2023/12/29 12:28:57;;;;;;;2.05;0.80;;;11.10;99.90;;;;;;5023032;28;20026;-65
2023/12/29 12:31:23;;;;;;;1.20;0.88;;;11.20;99.90;;;;;;5022436;28;20022;-63
2023/12/29 12:33:55;;;;;;;1.45;0.80;;;11.30;99.90;;;;;;5001647;28;20030;-62
2023/12/29 12:36:21;;;;;;;3.88;0.75;;;11.50;99.90;;;;;;5004672;28;20510;-62
2023/12/29 12:38:58;;;;;;;0.80;0.70;;;11.70;99.90;;;;;;5012274;28;20049;-62
2023/12/29 12:41:25;;;;;;;1.05;0.70;;;11.90;99.90;;;;;;5018682;28;20030;-62
2023/12/29 12:44:13;;;;;;;1.77;0.65;;;12.00;99.90;;;;;;4778309;28;21880;-61
2023/12/29 12:46:50;;;;;;;1.00;0.80;;;11.90;99.90;;;;;;5018639;28;20061;-62
2023/12/29 12:49:16;;;;;;;0.93;0.93;;;11.80;99.90;;;;;;5019379;28;20022;-62
2023/12/29 12:51:42;;;;;;;2.28;1.00;;;11.60;99.90;;;;;;5022742;28;20021;-61
2023/12/29 12:54:09;;;;;;;1.00;0.90;;;11.20;99.90;;;;;;5019266;28;20634;-61
2023/12/29 12:56:35;;;;;;;2.45;0.68;;;11.00;99.90;;;;;;5020876;28;20068;-61